Time,TemperatureF,DewpointF,PressureIn,WindDirection,WindDirectionDegrees,WindSpeedMPH,WindSpeedGustMPH,Humidity,HourlyPrecipIn,Conditions,Clouds,dailyrainin,SoftwareType,DateUTC
2013-04-04 00:02:00,56.0,38.0,-100.00,ESE,115,2.0,3.0,50,-99.99,,,-99.99,,2013-04-04 07:02:00,
2013-04-04 00:12:00,56.0,38.0,-100.00,ESE,115,2.0,3.0,50,-99.99,,,-99.99,,2013-04-04 07:12:00,
2013-04-04 01:02:00,57.0,37.0,-100.00,ESE,110,3.0,9.0,47,-99.99,,,-99.99,,2013-04-04 08:02:00,
2013-04-04 01:12:00,57.0,37.0,-100.00,ESE,110,3.0,9.0,47,-99.99,,,-99.99,,2013-04-04 08:12:00,
2013-04-04 02:02:00,55.0,37.0,-100.00,ENE,75,1.0,3.0,50,-99.99,,,-99.99,,2013-04-04 09:02:00,
2013-04-04 03:03:00,54.0,37.0,-100.00,South,175,1.0,3.0,52,-99.99,,,-99.99,,2013-04-04 10:03:00,
2013-04-04 03:12:00,54.0,37.0,-100.00,South,175,1.0,3.0,52,-99.99,,,-99.99,,2013-04-04 10:12:00,
2013-04-04 04:02:00,53.0,37.0,-100.00,NNE,25,1.0,2.0,54,-99.99,,,-99.99,,2013-04-04 11:02:00,
2013-04-04 05:02:00,53.0,37.0,-100.00,North,10,1.0,6.0,54,-99.99,,,-99.99,,2013-04-04 12:02:00,
2013-04-04 05:12:00,53.0,37.0,-100.00,North,10,1.0,6.0,54,-99.99,,,-99.99,,2013-04-04 12:12:00,
2013-04-04 06:02:00,52.0,37.0,-100.00,North,5,3.0,6.0,56,-99.99,,,-99.99,,2013-04-04 13:02:00,
2013-04-04 07:03:00,51.0,37.0,-100.00,ESE,105,1.0,3.0,58,-99.99,,,-99.99,,2013-04-04 14:03:00,
2013-04-04 07:12:00,51.0,37.0,-100.00,ESE,105,1.0,3.0,58,-99.99,,,-99.99,,2013-04-04 14:12:00,
2013-04-04 08:02:00,51.0,37.0,-100.00,SSE,165,1.0,5.0,58,-99.99,,,-99.99,,2013-04-04 15:02:00,
2013-04-04 08:10:00,50.0,39.0,-100.00,SE,145,1.0,2.0,65,-99.99,,,-99.99,,2013-04-04 15:10:00,
2013-04-04 09:03:00,50.0,39.0,-100.00,SE,145,1.0,2.0,65,-99.99,,,-99.99,,2013-04-04 16:03:00,
2013-04-04 10:02:00,51.0,40.0,-100.00,East,90,1.0,5.0,65,-99.99,,,-99.99,,2013-04-04 17:02:00,
2013-04-04 10:10:00,51.0,42.0,-100.00,SSE,155,1.0,5.0,71,-99.99,,,-99.99,,2013-04-04 17:10:00,
2013-04-04 11:00:00,51.0,44.0,-100.00,ENE,75,3.0,6.0,76,-99.99,,,-99.99,,2013-04-04 18:00:00,
2013-04-04 11:02:00,51.0,42.0,-100.00,SSE,155,1.0,5.0,71,-99.99,,,-99.99,,2013-04-04 18:02:00,
2013-04-04 12:10:00,50.0,46.0,-100.00,SSE,155,1.0,3.0,86,-99.99,,,-99.99,,2013-04-04 19:10:00,
2013-04-04 13:03:00,50.0,46.0,-100.00,SSE,155,1.0,3.0,86,-99.99,,,-99.99,,2013-04-04 20:03:00,
2013-04-04 13:20:00,51.0,48.0,-100.00,SE,140,0.0,1.0,89,-99.99,,,-99.99,,2013-04-04 20:20:00,
2013-04-04 14:02:00,51.0,48.0,-100.00,SE,140,0.0,1.0,89,-99.99,,,-99.99,,2013-04-04 21:02:00,
2013-04-04 14:10:00,50.0,47.0,-100.00,NW,305,2.0,3.0,89,-99.99,,,-99.99,,2013-04-04 21:10:00,
2013-04-04 14:12:00,51.0,48.0,-100.00,SE,140,0.0,1.0,89,-99.99,,,-99.99,,2013-04-04 21:12:00,
2013-04-04 15:03:00,50.0,47.0,-100.00,NW,305,2.0,3.0,89,-99.99,,,-99.99,,2013-04-04 22:03:00,
2013-04-04 16:02:00,51.0,48.0,-100.00,WSW,240,2.0,5.0,89,-99.99,,,-99.99,,2013-04-04 23:02:00,
2013-04-04 16:10:00,51.0,48.0,-100.00,NE,40,0.0,1.0,89,-99.99,,,-99.99,,2013-04-04 23:10:00,
2013-04-04 16:12:00,51.0,48.0,-100.00,WSW,240,2.0,5.0,89,-99.99,,,-99.99,,2013-04-04 23:12:00,
2013-04-04 17:02:00,51.0,48.0,-100.00,NE,40,0.0,1.0,89,-99.99,,,-99.99,,2013-04-05 00:02:00,
2013-04-04 18:02:00,51.0,49.0,-100.00,SE,140,0.0,6.0,92,-99.99,,,-99.99,,2013-04-05 01:02:00,
2013-04-04 18:12:00,51.0,49.0,-100.00,SE,140,0.0,6.0,92,-99.99,,,-99.99,,2013-04-05 01:12:00,
2013-04-04 19:02:00,51.0,49.0,-100.00,North,5,1.0,5.0,92,-99.99,,,-99.99,,2013-04-05 02:02:00,
2013-04-04 20:02:00,50.0,48.0,-100.00,South,175,2.0,7.0,92,-99.99,,,-99.99,,2013-04-05 03:02:00,
2013-04-04 20:12:00,50.0,48.0,-100.00,South,175,2.0,7.0,92,-99.99,,,-99.99,,2013-04-05 03:12:00,
2013-04-04 21:02:00,50.0,48.0,-100.00,North,5,1.0,2.0,92,-99.99,,,-99.99,,2013-04-05 04:02:00,
2013-04-04 22:02:00,50.0,49.0,-100.00,South,170,1.0,3.0,96,-99.99,,,-99.99,,2013-04-05 05:02:00,
2013-04-04 22:12:00,50.0,49.0,-100.00,South,170,1.0,3.0,96,-99.99,,,-99.99,,2013-04-05 05:12:00,
2013-04-04 23:02:00,48.0,47.0,-100.00,NNE,20,0.0,1.0,96,-99.99,,,-99.99,,2013-04-05 06:02:00,